Time;durP1;ratioP1;P1;durP2;ratioP2;P2;SDS_P1;SDS_P2;PMS_P1;PMS_P2;Temp;Humidity;BMP_temperature;BMP_pressure;BME280_temperature;BME280_humidity;BME280_pressure;Samples;Min_cycle;Max_cycle;Signal;HPM_P1;HPM_P2
2022/04/04 03:02:04;;;;;;;20.50;14.95;;;1.70;1.00;;;;;;5924806;23;20050;-96
2022/04/04 03:07:09;;;;;;;19.17;14.90;;;1.70;1.00;;;;;;5301836;23;20511;-96
2022/04/04 03:09:37;;;;;;;21.95;16.40;;;1.60;1.00;;;;;;5557355;23;20048;-96
2022/04/04 06:38:18;;;;;;;25.02;18.38;;;2.40;1.00;;;;;;4975949;23;20054;-88
2022/04/04 06:40:44;;;;;;;22.80;17.08;;;2.50;1.00;;;;;;4976805;28;20031;-90
2022/04/04 06:43:10;;;;;;;25.55;17.58;;;2.60;1.00;;;;;;4958206;28;20035;-90
2022/04/04 06:45:36;;;;;;;24.85;17.00;;;2.70;1.00;;;;;;4974128;28;20065;-90
2022/04/04 06:48:02;;;;;;;26.52;17.02;;;2.60;1.00;;;;;;4957707;28;20402;-88
2022/04/04 06:50:30;;;;;;;20.45;16.35;;;2.60;1.00;;;;;;4974249;28;20042;-88
2022/04/04 06:52:56;;;;;;;20.75;16.77;;;2.70;1.00;;;;;;4974672;28;20247;-89
2022/04/04 06:55:22;;;;;;;39.00;24.05;;;2.90;1.00;;;;;;4974075;28;20046;-88
2022/04/04 06:57:48;;;;;;;22.25;14.35;;;3.40;1.00;;;;;;4974946;28;20522;-89
2022/04/04 07:00:16;;;;;;;16.83;13.13;;;3.10;1.00;;;;;;4973964;28;20132;-88
2022/04/04 07:02:43;;;;;;;22.25;16.10;;;3.00;1.00;;;;;;4956430;28;20035;-90
2022/04/04 07:05:09;;;;;;;19.98;13.10;;;3.10;1.00;;;;;;4973680;28;20102;-91
2022/04/04 07:07:35;;;;;;;15.70;12.48;;;3.30;1.00;;;;;;4978616;28;20433;-93
2022/04/04 07:10:03;;;;;;;25.25;16.30;;;3.60;1.00;;;;;;4975719;28;20035;-89
2022/04/04 07:12:29;;;;;;;21.42;15.35;;;4.00;1.00;;;;;;4974873;28;20023;-93
2022/04/04 07:14:55;;;;;;;17.08;12.00;;;3.90;1.00;;;;;;4978740;28;20511;-88
2022/04/04 07:17:21;;;;;;;17.20;12.00;;;3.50;1.00;;;;;;4973792;28;20511;-83
2022/04/04 07:19:47;;;;;;;17.38;12.00;;;3.50;1.00;;;;;;4973615;28;20058;-82
2022/04/04 07:22:14;;;;;;;17.20;11.10;;;4.00;1.00;;;;;;4973898;28;20507;-87
2022/04/04 07:24:40;;;;;;;22.15;14.55;;;3.60;1.00;;;;;;4972972;28;20045;-84
2022/04/04 07:27:06;;;;;;;13.05;10.90;;;3.70;1.00;;;;;;4973420;28;20392;-85
2022/04/04 07:29:31;;;;;;;24.10;15.90;;;3.60;1.00;;;;;;4972931;28;20046;-84
2022/04/04 07:31:58;;;;;;;17.10;14.05;;;3.30;1.00;;;;;;4973302;28;20031;-85
2022/04/04 07:34:24;;;;;;;26.77;19.02;;;3.30;1.00;;;;;;4974393;28;20038;-87
2022/04/04 07:36:49;;;;;;;18.08;12.93;;;3.30;1.00;;;;;;4973547;28;20050;-84
2022/04/04 07:39:15;;;;;;;19.13;12.77;;;3.60;1.00;;;;;;4972440;28;20056;-84
2022/04/04 07:41:41;;;;;;;25.88;16.48;;;3.50;1.00;;;;;;4973345;28;20038;-86
2022/04/04 07:44:06;;;;;;;18.73;13.77;;;3.40;1.00;;;;;;4973782;28;20027;-85
2022/04/04 07:46:32;;;;;;;19.17;13.95;;;3.50;1.00;;;;;;4973536;28;20039;-84
2022/04/04 07:48:59;;;;;;;19.52;13.80;;;3.50;1.00;;;;;;4973096;28;20038;-83
2022/04/04 07:51:25;;;;;;;20.23;13.80;;;3.60;1.00;;;;;;4972537;28;20084;-84
2022/04/04 07:53:50;;;;;;;19.88;13.43;;;3.60;1.00;;;;;;4972502;28;20126;-84
2022/04/04 07:56:16;;;;;;;18.08;13.73;;;3.70;1.00;;;;;;4973301;28;20018;-84
2022/04/04 07:58:42;;;;;;;15.63;12.65;;;4.10;1.00;;;;;;4972749;28;20395;-83
2022/04/04 08:01:08;;;;;;;17.95;13.07;;;3.80;1.00;;;;;;4973496;28;20027;-84
2022/04/04 08:03:34;;;;;;;18.15;13.30;;;4.10;1.00;;;;;;4972764;28;20121;-84
2022/04/04 08:05:59;;;;;;;16.40;12.02;;;4.00;1.00;;;;;;4972288;28;20041;-84
2022/04/04 08:08:25;;;;;;;18.23;13.27;;;4.10;1.00;;;;;;4971875;28;20507;-84
2022/04/04 08:10:51;;;;;;;17.38;13.00;;;4.00;1.00;;;;;;4972318;28;20037;-84
2022/04/04 08:13:17;;;;;;;14.98;12.85;;;4.40;1.00;;;;;;4973268;28;20026;-85
2022/04/04 08:15:44;;;;;;;18.65;14.00;;;4.50;1.00;;;;;;4972708;28;20030;-85
2022/04/04 08:18:09;;;;;;;17.13;13.07;;;4.50;1.00;;;;;;4972235;28;20456;-84
2022/04/04 08:20:35;;;;;;;17.30;12.38;;;4.30;1.00;;;;;;4973328;28;20034;-85
2022/04/04 08:23:00;;;;;;;15.30;12.57;;;4.70;1.00;;;;;;4971681;28;20039;-85
2022/04/04 08:25:26;;;;;;;18.02;13.00;;;4.60;1.00;;;;;;4972858;28;20413;-85
2022/04/04 08:27:52;;;;;;;16.27;12.23;;;4.40;1.00;;;;;;4972608;28;20035;-84
2022/04/04 08:30:18;;;;;;;18.33;13.85;;;4.40;1.00;;;;;;4971850;28;20065;-84
2022/04/04 08:32:44;;;;;;;17.05;13.18;;;4.50;1.00;;;;;;4972416;28;20030;-84
2022/04/04 08:35:13;;;;;;;17.10;13.43;;;5.00;1.00;;;;;;4972179;28;20026;-84
2022/04/04 08:37:41;;;;;;;20.65;14.85;;;4.80;1.00;;;;;;4971350;28;20051;-84
2022/04/04 08:40:09;;;;;;;16.67;12.93;;;5.00;1.00;;;;;;4973177;28;20033;-84
2022/04/04 08:42:36;;;;;;;16.65;12.45;;;4.80;1.00;;;;;;4971352;28;20045;-84
2022/04/04 08:45:03;;;;;;;17.73;13.85;;;5.10;1.00;;;;;;4972861;28;20054;-84
2022/04/04 08:47:31;;;;;;;14.05;12.30;;;5.00;1.00;;;;;;4971535;28;20019;-84
2022/04/04 08:49:57;;;;;;;18.90;12.73;;;5.40;1.00;;;;;;4971565;28;20537;-84
2022/04/04 08:52:24;;;;;;;16.90;13.18;;;5.00;1.00;;;;;;4954029;28;20051;-85
2022/04/04 08:54:50;;;;;;;17.13;13.15;;;5.10;1.00;;;;;;4972211;28;20035;-84
2022/04/04 08:57:16;;;;;;;16.50;14.55;;;5.30;1.00;;;;;;4971750;28;20033;-83
2022/04/04 08:59:43;;;;;;;25.40;18.52;;;5.70;1.00;;;;;;4972247;28;20114;-84
2022/04/04 09:02:13;;;;;;;15.02;12.10;;;5.60;1.00;;;;;;4972175;28;20061;-85
2022/04/04 09:04:40;;;;;;;15.55;13.50;;;5.70;1.00;;;;;;4975631;28;20050;-84
2022/04/04 09:07:11;;;;;;;16.52;13.50;;;5.70;1.00;;;;;;4976252;28;20030;-84
2022/04/04 09:09:45;;;;;;;22.15;16.60;;;5.80;1.00;;;;;;4975924;28;20043;-84
2022/04/04 09:12:16;;;;;;;17.60;13.00;;;5.90;1.00;;;;;;4975540;28;20022;-85
2022/04/04 09:14:44;;;;;;;17.83;14.10;;;5.80;1.00;;;;;;4976100;28;20443;-84
2022/04/04 09:17:10;;;;;;;16.85;12.75;;;6.00;1.00;;;;;;4975521;28;20384;-85
2022/04/04 09:19:37;;;;;;;16.65;13.13;;;6.20;1.00;;;;;;4975180;28;20034;-85
2022/04/04 09:22:07;;;;;;;16.10;13.15;;;6.20;1.00;;;;;;4958980;28;20464;-85
2022/04/04 09:24:55;;;;;;;14.52;12.32;;;6.10;1.00;;;;;;4975394;28;20066;-85
2022/04/04 09:27:31;;;;;;;16.58;12.75;;;6.40;1.00;;;;;;4975170;28;20041;-85
2022/04/04 09:30:03;;;;;;;16.80;13.00;;;6.70;1.00;;;;;;4975019;28;20057;-85
2022/04/04 09:32:38;;;;;;;13.48;12.05;;;6.60;1.00;;;;;;4976349;28;20487;-85
2022/04/04 09:35:15;;;;;;;13.98;12.15;;;6.40;1.00;;;;;;4974819;28;20031;-85
2022/04/04 09:37:42;;;;;;;15.65;12.65;;;6.70;1.00;;;;;;4975137;28;20501;-84
2022/04/04 09:40:09;;;;;;;17.40;12.63;;;6.90;1.00;;;;;;4975815;28;20027;-84
2022/04/04 09:42:36;;;;;;;14.30;11.75;;;7.10;1.00;;;;;;4975361;28;20037;-85
2022/04/04 09:45:15;;;;;;;12.80;11.43;;;7.60;1.00;;;;;;4974886;28;20050;-85
2022/04/04 09:47:46;;;;;;;12.85;11.45;;;7.40;1.00;;;;;;4974791;28;20110;-85
2022/04/04 09:50:28;;;;;;;12.32;10.73;;;7.30;1.00;;;;;;4974657;28;20130;-85
2022/04/04 09:52:53;;;;;;;12.68;11.18;;;7.60;1.00;;;;;;4944677;28;20054;-85
2022/04/04 09:55:30;;;;;;;12.13;10.93;;;8.70;1.00;;;;;;4975735;28;20077;-88
2022/04/04 09:57:59;;;;;;;13.15;11.73;;;9.20;1.00;;;;;;4975512;28;20038;-86
2022/04/04 10:00:25;;;;;;;14.95;12.77;;;9.50;1.00;;;;;;4974645;28;20031;-86
2022/04/04 10:02:56;;;;;;;14.85;12.30;;;8.70;1.00;;;;;;4975086;28;20494;-86
2022/04/04 10:05:25;;;;;;;14.20;12.43;;;8.30;1.00;;;;;;4974781;28;20022;-86
2022/04/04 10:07:53;;;;;;;13.02;11.75;;;10.70;1.00;;;;;;4974758;28;20030;-86
2022/04/04 10:10:18;;;;;;;13.23;11.93;;;10.20;1.00;;;;;;4975112;28;20031;-85
2022/04/04 10:12:46;;;;;;;13.88;12.57;;;10.90;1.00;;;;;;4957841;28;20398;-85
2022/04/04 10:15:12;;;;;;;13.15;11.88;;;10.50;1.00;;;;;;4973423;28;20042;-87
2022/04/04 10:17:39;;;;;;;13.65;12.23;;;11.80;1.00;;;;;;4974562;28;20497;-85
2022/04/04 10:20:06;;;;;;;12.00;10.95;;;12.90;1.00;;;;;;4974448;28;20054;-85
2022/04/04 10:22:33;;;;;;;12.73;11.43;;;12.80;1.00;;;;;;4974342;28;20499;-84
2022/04/04 10:25:02;;;;;;;13.23;11.93;;;12.70;1.00;;;;;;4957885;28;20034;-84
2022/04/04 10:27:29;;;;;;;13.82;12.60;;;14.00;1.00;;;;;;4974512;28;20061;-84
2022/04/04 10:30:05;;;;;;;13.90;12.60;;;14.00;1.00;;;;;;4974113;28;20046;-86
2022/04/04 10:32:32;;;;;;;13.80;12.60;;;14.80;1.00;;;;;;4974043;28;20023;-86
2022/04/04 10:35:09;;;;;;;13.25;12.05;;;14.20;1.00;;;;;;4973716;28;20038;-85
2022/04/04 10:37:43;;;;;;;13.07;11.95;;;14.90;1.00;;;;;;4973860;28;20054;-84
2022/04/04 10:40:29;;;;;;;12.85;11.65;;;15.00;1.00;;;;;;4969127;28;20031;-84
2022/04/04 10:43:02;;;;;;;12.63;11.52;;;13.80;1.00;;;;;;4972618;28;20034;-84
2022/04/04 10:45:31;;;;;;;13.52;12.32;;;12.60;1.00;;;;;;4974207;28;20118;-85
2022/04/04 10:48:07;;;;;;;12.65;11.55;;;12.10;1.00;;;;;;4973712;28;20062;-85
2022/04/04 10:50:35;;;;;;;13.70;11.95;;;11.70;1.00;;;;;;4974162;28;20394;-87
2022/04/04 10:53:02;;;;;;;12.85;11.68;;;11.50;1.00;;;;;;4973398;28;20043;-86
2022/04/04 10:55:38;;;;;;;13.93;12.52;;;11.00;1.00;;;;;;4965978;28;20090;-87
2022/04/04 10:58:33;;;;;;;13.85;12.55;;;10.60;1.00;;;;;;4973998;28;20031;-86
2022/04/04 11:01:09;;;;;;;13.10;11.80;;;10.80;1.00;;;;;;4956085;28;20043;-85
2022/04/04 11:03:54;;;;;;;12.02;10.85;;;10.80;1.00;;;;;;4973365;28;20030;-85
2022/04/04 11:09:26;;;;;;;11.70;10.60;;;10.60;1.00;;;;;;4973273;28;20577;-85
2022/04/04 11:12:01;;;;;;;11.05;10.05;;;13.50;1.00;;;;;;4973184;28;20035;-85
2022/04/04 11:14:37;;;;;;;10.95;9.88;;;15.10;1.00;;;;;;4973254;28;20029;-86
2022/04/04 11:17:08;;;;;;;10.73;9.73;;;16.60;1.00;;;;;;4972753;28;20039;-86
2022/04/04 11:19:53;;;;;;;10.75;9.85;;;16.80;1.00;;;;;;4956122;28;20404;-86
2022/04/04 11:22:25;;;;;;;10.20;9.30;;;18.00;1.00;;;;;;4971007;28;20379;-86
2022/04/04 11:25:05;;;;;;;10.35;9.45;;;18.20;1.00;;;;;;4973575;28;20034;-87
2022/04/04 11:27:36;;;;;;;11.40;10.48;;;18.00;1.00;;;;;;4971897;28;20185;-87
2022/04/04 11:30:07;;;;;;;10.43;9.52;;;18.70;1.00;;;;;;4973338;28;20373;-88
2022/04/04 11:32:34;;;;;;;11.07;10.18;;;17.10;1.00;;;;;;4973218;28;20023;-88
2022/04/04 11:35:27;;;;;;;11.75;10.77;;;15.40;1.00;;;;;;4973901;28;20039;-86
2022/04/04 11:38:01;;;;;;;11.43;10.52;;;15.80;1.00;;;;;;4958953;28;20054;-86
2022/04/04 11:40:42;;;;;;;10.43;9.55;;;17.30;1.00;;;;;;4967892;28;20492;-89
2022/04/04 11:43:12;;;;;;;11.73;10.73;;;18.40;1.00;;;;;;4969674;28;20038;-88
2022/04/04 11:45:40;;;;;;;12.25;10.43;;;17.30;1.00;;;;;;4971025;28;20515;-88
2022/04/04 11:48:26;;;;;;;11.82;10.73;;;18.40;1.00;;;;;;4971425;28;20046;-87
2022/04/04 11:50:56;;;;;;;10.82;9.93;;;18.40;1.00;;;;;;4970936;28;20092;-88
2022/04/04 11:53:25;;;;;;;11.10;10.10;;;16.50;1.00;;;;;;4971131;28;20542;-86
2022/04/04 11:55:56;;;;;;;10.80;9.88;;;19.00;1.00;;;;;;4971021;28;20033;-86
2022/04/04 11:58:25;;;;;;;10.90;9.95;;;20.60;1.00;;;;;;4972433;28;20483;-86
2022/04/04 12:00:55;;;;;;;9.65;8.85;;;21.10;1.00;;;;;;4971985;28;20043;-86
2022/04/04 12:03:22;;;;;;;11.25;9.77;;;21.50;1.00;;;;;;4970489;28;20034;-87
2022/04/04 12:05:49;;;;;;;10.38;9.57;;;21.70;1.00;;;;;;4971063;28;20026;-86
2022/04/04 12:08:19;;;;;;;10.40;9.57;;;22.50;1.00;;;;;;4971126;28;20034;-86
2022/04/04 12:10:47;;;;;;;10.77;9.88;;;22.90;1.00;;;;;;4955965;28;20038;-86
2022/04/04 12:13:21;;;;;;;9.88;9.15;;;23.50;1.00;;;;;;4973156;28;20387;-86
2022/04/04 12:15:53;;;;;;;10.60;9.77;;;23.40;1.00;;;;;;4971414;28;20081;-86
2022/04/04 12:18:26;;;;;;;10.93;10.00;;;23.90;1.00;;;;;;4972386;28;20106;-87
2022/04/04 12:21:01;;;;;;;10.55;9.65;;;22.40;1.00;;;;;;4970763;28;20035;-87
2022/04/04 12:26:15;;;;;;;10.23;9.43;;;22.10;1.00;;;;;;4972809;28;20037;-87
2022/04/04 12:28:50;;;;;;;11.40;10.50;;;22.80;1.00;;;;;;4971871;28;20043;-86
2022/04/04 12:31:16;;;;;;;10.80;9.93;;;22.30;1.00;;;;;;4968980;28;20030;-86
2022/04/04 12:33:43;;;;;;;10.50;9.70;;;22.90;1.00;;;;;;4972230;28;20046;-87
2022/04/04 12:36:09;;;;;;;11.45;10.45;;;21.60;1.00;;;;;;4972085;28;20038;-86
2022/04/04 12:38:37;;;;;;;10.27;9.48;;;21.00;1.00;;;;;;4971452;28;20469;-87
2022/04/04 12:41:05;;;;;;;11.30;10.40;;;22.40;1.00;;;;;;4972631;28;20411;-87
2022/04/04 12:43:31;;;;;;;11.23;10.32;;;22.60;1.00;;;;;;4972331;28;20019;-86
2022/04/04 12:46:01;;;;;;;11.10;10.20;;;23.10;1.00;;;;;;4972616;28;20046;-86
2022/04/04 12:48:40;;;;;;;10.48;9.60;;;22.70;1.00;;;;;;4971793;28;20138;-87
2022/04/04 12:51:23;;;;;;;11.32;10.35;;;23.10;1.00;;;;;;4972612;28;20027;-86
2022/04/04 12:53:52;;;;;;;10.35;9.55;;;21.60;1.00;;;;;;4972146;28;20475;-86
2022/04/04 12:56:18;;;;;;;10.43;9.63;;;20.30;1.00;;;;;;4972223;28;20102;-87
2022/04/04 12:59:00;;;;;;;12.88;11.70;;;20.90;1.00;;;;;;4971727;28;20110;-86
2022/04/04 13:01:25;;;;;;;10.27;9.48;;;21.10;1.00;;;;;;4970170;28;20499;-87
2022/04/04 13:03:53;;;;;;;10.63;9.82;;;18.40;1.00;;;;;;4972688;28;20058;-86
2022/04/04 13:06:19;;;;;;;10.80;10.00;;;18.10;1.00;;;;;;4971722;28;20035;-86
2022/04/04 13:09:02;;;;;;;10.63;9.75;;;18.70;1.00;;;;;;4971953;28;20034;-86
2022/04/04 13:11:30;;;;;;;10.77;9.98;;;17.50;1.00;;;;;;4954419;28;20078;-86
2022/04/04 13:14:07;;;;;;;10.63;9.73;;;17.80;1.00;;;;;;4971403;28;20035;-86
2022/04/04 13:16:35;;;;;;;11.27;10.38;;;18.10;1.00;;;;;;4971703;28;20042;-86
2022/04/04 13:19:03;;;;;;;11.60;10.60;;;17.60;1.00;;;;;;4972361;28;20035;-87
2022/04/04 13:21:28;;;;;;;11.27;10.27;;;16.60;1.00;;;;;;4972723;28;20528;-86
2022/04/04 13:23:54;;;;;;;11.30;10.38;;;18.20;1.00;;;;;;4971588;28;20061;-86
2022/04/04 13:26:20;;;;;;;11.25;10.32;;;18.50;1.00;;;;;;4972369;28;20041;-86
2022/04/04 13:28:45;;;;;;;11.45;10.40;;;19.10;1.00;;;;;;4971588;28;20508;-86
2022/04/04 13:31:11;;;;;;;11.48;10.48;;;18.90;1.00;;;;;;4972374;28;20035;-87
2022/04/04 13:33:37;;;;;;;12.20;11.20;;;19.00;1.00;;;;;;4971721;28;20035;-86
2022/04/04 13:36:04;;;;;;;10.52;9.57;;;19.20;1.00;;;;;;4971948;28;20031;-87
2022/04/04 13:38:31;;;;;;;10.63;9.73;;;19.40;1.00;;;;;;4971339;28;20121;-87
2022/04/04 13:40:57;;;;;;;10.70;9.88;;;19.40;1.00;;;;;;4971409;28;20076;-87
2022/04/04 13:43:26;;;;;;;11.73;10.80;;;19.40;1.00;;;;;;4971730;28;20092;-86
2022/04/04 13:45:52;;;;;;;11.32;10.38;;;18.50;1.00;;;;;;4972355;28;20027;-86
2022/04/04 13:48:18;;;;;;;11.18;10.25;;;18.20;1.00;;;;;;4971407;28;20038;-86
2022/04/04 13:50:44;;;;;;;11.50;10.40;;;18.80;1.00;;;;;;4973677;28;20026;-87
2022/04/04 13:53:10;;;;;;;10.70;9.75;;;18.10;1.00;;;;;;4975003;28;20077;-86
2022/04/04 13:55:35;;;;;;;10.55;9.75;;;18.40;1.00;;;;;;4974826;28;20044;-86
2022/04/04 13:58:01;;;;;;;11.50;10.60;;;19.00;1.00;;;;;;4975394;28;20033;-86
2022/04/04 14:00:27;;;;;;;10.25;9.35;;;18.30;1.00;;;;;;4974776;28;20037;-86
2022/04/04 14:02:52;;;;;;;11.50;10.50;;;19.20;1.00;;;;;;4975317;28;20394;-86
2022/04/04 14:05:18;;;;;;;10.82;10.02;;;19.10;1.00;;;;;;4974704;28;20034;-86
2022/04/04 14:07:44;;;;;;;11.38;10.38;;;19.30;1.00;;;;;;4975044;28;20026;-86
2022/04/04 14:10:14;;;;;;;11.60;10.70;;;19.70;1.00;;;;;;4975355;28;20039;-86
2022/04/04 14:12:40;;;;;;;11.30;10.30;;;18.70;1.00;;;;;;4974439;28;20054;-86
2022/04/04 14:15:10;;;;;;;10.60;9.70;;;17.40;1.00;;;;;;4974287;28;20058;-86
2022/04/04 14:17:36;;;;;;;10.52;9.52;;;16.90;1.00;;;;;;4974167;28;20019;-86
2022/04/04 14:20:06;;;;;;;10.85;10.00;;;17.80;1.00;;;;;;4975145;28;20035;-86
2022/04/04 14:22:33;;;;;;;10.55;9.65;;;17.80;1.00;;;;;;4974308;28;20027;-86
2022/04/04 14:24:59;;;;;;;10.90;9.90;;;18.40;1.00;;;;;;4974547;28;20471;-86
2022/04/04 14:27:25;;;;;;;10.80;9.70;;;18.70;1.00;;;;;;4974502;28;20027;-86
2022/04/04 14:29:51;;;;;;;10.65;9.85;;;18.80;1.00;;;;;;4974745;28;20034;-86
2022/04/04 14:32:17;;;;;;;10.30;9.50;;;18.90;1.00;;;;;;4974191;28;20030;-86
2022/04/04 14:34:45;;;;;;;9.80;9.00;;;18.60;1.00;;;;;;4959108;28;20126;-87
2022/04/04 14:37:11;;;;;;;10.82;9.93;;;18.60;1.00;;;;;;4970852;28;20050;-86
2022/04/04 14:39:38;;;;;;;9.98;9.07;;;18.30;1.00;;;;;;4974131;28;20053;-86
2022/04/04 14:42:05;;;;;;;10.60;9.50;;;18.30;1.00;;;;;;4973869;28;20038;-86
2022/04/04 14:44:31;;;;;;;10.73;9.75;;;18.00;1.00;;;;;;4973906;28;20116;-86
2022/04/04 14:46:56;;;;;;;9.90;9.00;;;17.30;1.00;;;;;;4973945;28;20108;-86
2022/04/04 14:49:22;;;;;;;9.57;8.68;;;17.80;1.00;;;;;;4973954;28;20074;-86
2022/04/04 14:51:48;;;;;;;10.00;9.20;;;17.70;1.00;;;;;;4975041;28;20026;-86
2022/04/04 14:54:13;;;;;;;9.98;9.10;;;17.60;1.00;;;;;;4973702;28;20031;-86
2022/04/04 14:56:40;;;;;;;10.00;9.20;;;17.90;1.00;;;;;;4973923;28;20035;-86
2022/04/04 14:59:05;;;;;;;10.68;9.77;;;17.90;1.00;;;;;;4973901;28;20065;-87
2022/04/04 15:01:31;;;;;;;10.38;9.43;;;18.00;1.00;;;;;;4973644;28;20063;-86
2022/04/04 15:03:57;;;;;;;10.85;9.95;;;17.00;1.00;;;;;;4974120;28;20038;-86
2022/04/04 15:06:22;;;;;;;9.65;8.85;;;16.50;1.00;;;;;;4973917;28;20031;-86
2022/04/04 15:08:49;;;;;;;10.18;9.30;;;16.80;1.00;;;;;;4973027;28;20031;-86
2022/04/04 15:11:14;;;;;;;10.02;9.23;;;17.20;1.00;;;;;;4973682;28;20595;-86
2022/04/04 15:13:48;;;;;;;9.90;9.00;;;17.80;1.00;;;;;;4973492;28;20027;-85
2022/04/04 15:16:14;;;;;;;10.80;9.88;;;17.70;1.00;;;;;;4970674;28;20499;-86
2022/04/04 15:18:40;;;;;;;10.38;9.50;;;17.20;1.00;;;;;;4973471;28;20165;-86
2022/04/04 15:21:06;;;;;;;10.52;9.63;;;17.10;1.00;;;;;;4973583;28;20465;-86
2022/04/04 15:23:31;;;;;;;10.55;9.65;;;17.20;1.00;;;;;;4973232;28;20491;-86
2022/04/04 15:25:57;;;;;;;10.15;9.30;;;17.20;1.00;;;;;;4973254;28;20037;-86
2022/04/04 15:28:22;;;;;;;10.75;9.73;;;17.30;1.00;;;;;;4973115;28;20514;-86
2022/04/04 15:30:48;;;;;;;10.63;9.70;;;17.10;1.00;;;;;;4973697;28;20045;-86
2022/04/04 15:33:14;;;;;;;10.20;9.30;;;17.10;1.00;;;;;;4972696;28;20035;-86
2022/04/04 15:35:40;;;;;;;10.55;9.55;;;17.00;1.00;;;;;;4973611;28;20402;-86
2022/04/04 15:38:06;;;;;;;10.30;9.40;;;17.60;1.00;;;;;;4972911;28;20057;-86
2022/04/04 15:40:32;;;;;;;10.52;9.63;;;17.60;1.00;;;;;;4972796;28;20039;-86
2022/04/04 15:42:58;;;;;;;10.70;9.80;;;17.60;1.00;;;;;;4973740;28;20023;-86
2022/04/04 15:45:25;;;;;;;13.27;12.23;;;17.20;1.00;;;;;;4973212;28;20046;-86
2022/04/04 15:47:52;;;;;;;9.98;9.07;;;17.00;1.00;;;;;;4972683;28;20081;-86
2022/04/04 15:50:18;;;;;;;10.90;9.90;;;16.80;1.00;;;;;;4973103;28;20157;-86
2022/04/04 15:52:44;;;;;;;22.65;20.40;;;16.70;1.00;;;;;;4972732;28;20098;-86
2022/04/04 15:55:10;;;;;;;10.50;9.60;;;16.70;1.00;;;;;;4973745;28;20027;-86
2022/04/04 15:57:36;;;;;;;10.70;9.60;;;16.60;1.00;;;;;;4972439;28;20027;-86
2022/04/04 16:00:04;;;;;;;9.90;8.90;;;16.50;1.00;;;;;;4972831;28;20487;-86
2022/04/04 16:02:30;;;;;;;10.88;9.85;;;16.70;1.00;;;;;;4972409;28;20046;-86
2022/04/04 16:04:56;;;;;;;10.30;9.40;;;16.50;1.00;;;;;;4972508;28;20487;-86
2022/04/04 16:07:22;;;;;;;10.57;9.68;;;16.80;1.00;;;;;;4972974;28;20479;-86
2022/04/04 16:09:47;;;;;;;11.23;9.75;;;17.10;1.00;;;;;;4972501;28;20041;-85
2022/04/04 16:12:15;;;;;;;12.27;10.82;;;16.20;1.00;;;;;;4972499;28;20043;-86
2022/04/04 16:14:42;;;;;;;10.32;9.32;;;16.40;1.00;;;;;;4971903;28;20035;-86
2022/04/04 16:17:07;;;;;;;10.60;9.60;;;16.20;1.00;;;;;;4972507;28;20023;-86
2022/04/04 16:19:34;;;;;;;10.63;9.63;;;16.20;1.00;;;;;;4972297;28;20037;-86
2022/04/04 16:22:00;;;;;;;10.30;9.38;;;16.50;1.00;;;;;;4972851;28;20661;-87
2022/04/04 16:24:26;;;;;;;9.90;9.00;;;16.00;1.00;;;;;;4972121;28;20105;-86
2022/04/04 16:26:51;;;;;;;9.63;8.63;;;16.10;1.00;;;;;;4972369;28;20118;-86
2022/04/04 16:29:18;;;;;;;10.52;9.30;;;16.10;1.00;;;;;;4972001;28;20103;-86
2022/04/04 16:31:43;;;;;;;10.43;9.45;;;15.80;1.00;;;;;;4956822;28;20110;-86
2022/04/04 16:34:09;;;;;;;10.27;9.38;;;16.10;1.00;;;;;;4973036;28;20102;-86
2022/04/04 16:36:37;;;;;;;10.10;9.20;;;16.10;1.00;;;;;;4971019;28;20034;-86
2022/04/04 16:39:06;;;;;;;9.93;9.02;;;16.00;1.00;;;;;;4971802;28;20027;-86
2022/04/04 16:41:32;;;;;;;9.75;8.77;;;16.10;1.00;;;;;;4971869;28;20066;-86
2022/04/04 16:43:58;;;;;;;11.25;10.15;;;16.40;1.00;;;;;;4972210;28;20031;-86
2022/04/04 16:46:26;;;;;;;12.63;11.32;;;16.00;1.00;;;;;;4973868;28;20027;-86
2022/04/04 16:48:51;;;;;;;11.48;10.30;;;15.40;1.00;;;;;;4971969;28;20031;-87
2022/04/04 16:51:17;;;;;;;9.55;8.75;;;15.50;1.00;;;;;;4971571;28;20035;-86
2022/04/04 16:53:44;;;;;;;10.20;8.88;;;15.60;1.00;;;;;;4972176;28;20030;-91
2022/04/04 16:56:10;;;;;;;9.65;8.65;;;15.40;1.00;;;;;;4967492;28;20063;-87
2022/04/04 16:58:35;;;;;;;10.82;8.98;;;15.20;1.00;;;;;;4962555;28;20042;-87
2022/04/04 17:01:01;;;;;;;9.85;8.85;;;15.60;1.00;;;;;;4972729;28;20038;-88
2022/04/04 17:03:26;;;;;;;10.77;9.73;;;15.30;1.00;;;;;;4969898;28;20034;-86
2022/04/04 17:05:53;;;;;;;9.85;8.90;;;15.30;1.00;;;;;;4968954;28;20031;-86
2022/04/04 17:08:19;;;;;;;10.55;8.90;;;15.30;1.00;;;;;;4968109;28;20025;-87
2022/04/04 17:10:45;;;;;;;9.38;8.52;;;15.20;1.00;;;;;;4955722;28;20042;-85
2022/04/04 17:13:11;;;;;;;11.30;10.20;;;15.00;1.00;;;;;;4968922;28;20387;-85
2022/04/04 17:15:37;;;;;;;12.07;10.88;;;14.90;1.00;;;;;;4968081;28;20042;-86
2022/04/04 17:18:04;;;;;;;18.70;16.90;;;15.10;1.00;;;;;;4965155;28;20146;-86
2022/04/04 17:20:32;;;;;;;14.57;13.27;;;14.90;1.00;;;;;;4959649;28;20038;-88
2022/04/04 17:22:58;;;;;;;10.13;9.15;;;14.90;1.00;;;;;;4968805;28;20411;-86
2022/04/04 17:25:25;;;;;;;12.10;10.90;;;14.70;1.00;;;;;;4974031;28;20031;-86
2022/04/04 17:27:50;;;;;;;20.73;18.10;;;14.50;1.00;;;;;;4974388;28;20086;-87
2022/04/04 17:30:16;;;;;;;10.40;9.40;;;14.40;1.00;;;;;;4972279;28;20275;-87
2022/04/04 17:32:42;;;;;;;12.40;11.20;;;14.40;1.00;;;;;;4972123;28;20031;-87
2022/04/04 17:35:08;;;;;;;13.32;11.93;;;14.50;1.00;;;;;;4971998;28;20109;-87
2022/04/04 17:37:34;;;;;;;11.15;9.75;;;14.10;1.00;;;;;;4974379;28;20601;-88
2022/04/04 17:40:01;;;;;;;11.02;9.95;;;14.00;1.00;;;;;;4974808;28;20491;-87
2022/04/04 17:42:28;;;;;;;19.50;17.52;;;13.80;1.00;;;;;;4974048;28;20023;-88
2022/04/04 17:44:54;;;;;;;22.70;20.48;;;13.60;1.00;;;;;;4973465;28;20508;-89
2022/04/04 17:47:20;;;;;;;14.75;13.25;;;13.60;1.00;;;;;;4972373;28;20084;-87
2022/04/04 17:49:46;;;;;;;23.70;21.25;;;13.50;1.00;;;;;;4972017;28;20483;-86
2022/04/04 17:52:12;;;;;;;28.20;24.27;;;13.50;1.00;;;;;;4972045;28;20031;-88
2022/04/04 17:54:37;;;;;;;14.38;12.90;;;13.10;1.00;;;;;;4973346;28;20051;-88
2022/04/04 17:57:03;;;;;;;13.15;11.85;;;13.00;1.00;;;;;;4971861;28;20033;-87
2022/04/04 17:59:29;;;;;;;16.20;14.50;;;12.90;1.00;;;;;;4970220;28;20026;-85
2022/04/04 18:01:55;;;;;;;11.82;10.55;;;12.80;1.00;;;;;;4967544;28;20507;-87
2022/04/04 18:04:25;;;;;;;11.18;8.77;;;12.60;1.00;;;;;;4973995;28;20027;-88
2022/04/04 18:06:52;;;;;;;8.65;7.75;;;12.60;1.00;;;;;;4974830;28;20387;-86
2022/04/04 18:09:21;;;;;;;8.80;7.90;;;12.30;1.00;;;;;;4973125;28;20042;-87
2022/04/04 18:11:48;;;;;;;9.07;8.18;;;12.10;1.00;;;;;;4971680;28;20549;-86
2022/04/04 18:14:15;;;;;;;8.70;7.80;;;11.90;1.00;;;;;;4970991;28;20554;-88
2022/04/04 18:16:41;;;;;;;9.60;8.68;;;12.00;1.00;;;;;;4973556;28;20041;-93
2022/04/04 18:19:07;;;;;;;9.52;8.45;;;11.80;1.00;;;;;;4975186;28;20033;-86
2022/04/04 18:21:33;;;;;;;10.52;9.43;;;11.60;1.00;;;;;;4970138;28;20101;-86
2022/04/04 18:23:59;;;;;;;13.75;12.32;;;11.40;1.00;;;;;;4971026;28;20035;-92
2022/04/04 18:26:25;;;;;;;19.83;17.15;;;11.40;1.00;;;;;;4972607;28;20510;-86
2022/04/04 18:28:52;;;;;;;20.33;17.23;;;11.20;1.00;;;;;;4971389;28;20023;-89
2022/04/04 18:31:18;;;;;;;15.13;11.43;;;10.80;1.00;;;;;;4973369;28;20506;-89
2022/04/04 18:33:43;;;;;;;11.38;10.15;;;11.00;1.00;;;;;;4971893;28;20026;-91
2022/04/04 18:36:10;;;;;;;9.80;8.55;;;11.20;1.00;;;;;;4960146;28;20093;-88
2022/04/04 18:38:36;;;;;;;11.07;9.90;;;11.20;1.00;;;;;;4972424;28;20046;-87
2022/04/04 18:41:02;;;;;;;10.77;8.60;;;11.00;1.00;;;;;;4970477;28;20042;-89
2022/04/04 18:43:29;;;;;;;9.27;8.20;;;11.00;1.00;;;;;;4973115;28;20073;-96
2022/04/04 18:45:58;;;;;;;10.63;8.73;;;11.00;1.00;;;;;;4978950;28;20026;-96
2022/04/04 18:48:44;;;;;;;11.57;9.30;;;11.00;1.00;;;;;;4972988;28;20035;-91
2022/04/04 18:51:09;;;;;;;19.42;14.80;;;10.90;1.00;;;;;;4973218;28;20035;-96
2022/04/04 18:53:35;;;;;;;17.05;14.25;;;10.80;1.00;;;;;;4973819;28;20037;-92
2022/04/04 18:56:02;;;;;;;18.55;14.98;;;11.10;1.00;;;;;;4955748;28;20062;-92
2022/04/04 18:58:38;;;;;;;20.27;15.95;;;10.80;1.00;;;;;;4965049;28;20022;-93
2022/04/04 19:01:06;;;;;;;19.15;13.70;;;10.70;1.00;;;;;;4973474;28;20035;-91
2022/04/04 19:03:35;;;;;;;13.90;12.38;;;10.40;1.00;;;;;;4972343;28;20439;-96
2022/04/04 19:06:24;;;;;;;13.48;11.45;;;10.50;1.00;;;;;;4977369;28;20035;-96
2022/04/04 19:08:51;;;;;;;13.32;11.90;;;10.50;1.00;;;;;;4969446;28;20499;-91
2022/04/04 19:11:17;;;;;;;13.50;12.05;;;10.50;1.00;;;;;;4971298;28;20038;-93
2022/04/04 19:13:43;;;;;;;13.35;10.98;;;10.40;99.90;;;;;;4971730;28;20023;-93
2022/04/04 19:16:09;;;;;;;18.13;12.20;;;10.50;1.00;;;;;;4968764;28;20466;-95
2022/04/04 19:18:35;;;;;;;15.43;12.90;;;10.40;1.00;;;;;;4970439;28;20050;-95
2022/04/04 19:21:01;;;;;;;13.98;12.50;;;10.40;1.00;;;;;;4974943;28;20027;-96
2022/04/04 19:23:27;;;;;;;14.45;12.95;;;10.10;1.00;;;;;;4975603;28;20019;-94
2022/04/04 19:25:53;;;;;;;14.30;12.80;;;10.10;1.00;;;;;;4956839;28;20085;-93